createdAt,value
2018-03-12T00:02:14.229Z,9.00
2018-03-12T00:04:42.785Z,8.70
2018-03-12T00:07:12.050Z,8.60
2018-03-12T00:09:40.533Z,7.90
2018-03-12T00:12:09.354Z,7.03
2018-03-12T00:14:37.832Z,7.57
2018-03-12T00:17:06.562Z,6.73
2018-03-12T00:19:34.905Z,6.97
2018-03-12T00:22:03.932Z,6.80
2018-03-12T00:24:32.620Z,6.43
2018-03-12T00:27:00.853Z,6.77
2018-03-12T00:29:30.053Z,7.50
2018-03-12T00:31:58.464Z,6.97
2018-03-12T00:34:26.829Z,7.43
2018-03-12T00:36:55.937Z,7.47
2018-03-12T00:39:24.193Z,7.70
2018-03-12T00:41:53.224Z,7.07
2018-03-12T00:44:21.800Z,8.27
2018-03-12T00:46:50.062Z,6.80
2018-03-12T00:49:18.651Z,7.67
2018-03-12T00:51:47.104Z,7.50
2018-03-12T00:54:16.346Z,7.30
2018-03-12T00:56:44.711Z,7.60
2018-03-12T00:59:13.032Z,8.60
2018-03-12T01:01:41.324Z,7.60
2018-03-12T01:04:09.548Z,7.53
2018-03-12T01:06:37.817Z,7.60
2018-03-12T01:09:11.904Z,8.50
2018-03-12T01:11:40.213Z,8.37
2018-03-12T01:14:08.598Z,7.90
2018-03-12T01:16:36.922Z,8.20
2018-03-12T01:19:05.745Z,8.10
2018-03-12T01:21:34.798Z,8.90
2018-03-12T01:24:03.272Z,8.67
2018-03-12T01:26:32.350Z,8.20
2018-03-12T01:29:00.817Z,8.27
2018-03-12T01:31:29.173Z,8.70
2018-03-12T01:33:58.142Z,8.10
2018-03-12T01:36:26.556Z,8.30
2018-03-12T01:38:54.975Z,8.23
2018-03-12T01:41:23.277Z,8.10
2018-03-12T01:43:52.421Z,8.40
2018-03-12T01:46:20.696Z,8.27
2018-03-12T01:48:49.129Z,8.40
2018-03-12T01:51:17.783Z,8.87
2018-03-12T01:53:46.012Z,8.63
2018-03-12T01:56:15.181Z,8.67
2018-03-12T01:58:43.497Z,8.80
2018-03-12T02:01:11.726Z,8.20
2018-03-12T02:03:40.101Z,7.77
2018-03-12T02:06:09.274Z,7.77
2018-03-12T02:08:37.584Z,7.30
2018-03-12T02:11:05.937Z,7.43
2018-03-12T02:13:34.272Z,7.17
2018-03-12T02:16:02.515Z,6.70
2018-03-12T02:18:31.034Z,6.93
2018-03-12T02:21:00.168Z,5.90
2018-03-12T02:23:28.528Z,5.77
2018-03-12T02:25:56.792Z,5.07
2018-03-12T02:28:25.078Z,6.03
2018-03-12T02:30:53.373Z,5.17
2018-03-12T02:33:21.835Z,5.10
2018-03-12T02:35:50.931Z,5.00
2018-03-12T02:38:19.572Z,5.40
2018-03-12T02:40:47.957Z,5.20
2018-03-12T02:43:16.312Z,5.03
2018-03-12T02:45:44.702Z,5.20
2018-03-12T02:48:13.429Z,4.97
2018-03-12T02:50:42.490Z,5.53
2018-03-12T02:53:10.795Z,6.20
2018-03-12T02:55:39.816Z,5.87
2018-03-12T02:58:08.167Z,6.70
2018-03-12T03:00:37.221Z,7.37
2018-03-12T03:03:05.607Z,6.30
2018-03-12T03:05:34.024Z,7.63
2018-03-12T03:08:02.462Z,6.93
2018-03-12T03:10:30.985Z,7.27
2018-03-12T03:13:00.045Z,7.20
2018-03-12T03:15:28.417Z,6.80
2018-03-12T03:17:56.730Z,7.90
2018-03-12T03:20:25.041Z,7.13
2018-03-12T03:22:53.423Z,7.00
2018-03-12T03:25:22.581Z,7.27
2018-03-12T03:27:51.129Z,6.30
2018-03-12T03:33:17.173Z,6.37
2018-03-12T03:35:45.484Z,6.10
2018-03-12T03:38:14.594Z,6.50
2018-03-12T03:40:42.918Z,6.57
2018-03-12T03:43:11.213Z,5.77
2018-03-12T03:45:39.832Z,5.90
2018-03-12T03:48:08.213Z,5.90
2018-03-12T03:50:37.241Z,6.23
2018-03-12T03:53:05.498Z,6.00
2018-03-12T03:55:34.031Z,6.13
2018-03-12T03:58:02.269Z,5.73
2018-03-12T04:00:30.541Z,6.10
2018-03-12T04:02:58.935Z,5.77
2018-03-12T04:05:27.465Z,5.67
2018-03-12T04:07:55.777Z,5.30
2018-03-12T04:10:24.057Z,6.40
2018-03-12T04:12:52.484Z,5.50
2018-03-12T04:15:20.744Z,6.67
2018-03-12T04:17:49.873Z,5.97
2018-03-12T04:20:18.184Z,6.23
2018-03-12T04:22:46.597Z,5.67
2018-03-12T04:25:14.933Z,5.60
2018-03-12T04:27:43.200Z,6.07
2018-03-12T04:30:11.477Z,5.93
2018-03-12T04:32:39.999Z,6.33
2018-03-12T04:35:08.415Z,6.13
2018-03-12T04:37:36.670Z,6.93
2018-03-12T04:40:05.088Z,6.90
2018-03-12T04:42:33.882Z,5.90
2018-03-12T04:45:03.150Z,6.27
2018-03-12T04:47:31.634Z,6.57
2018-03-12T04:50:00.562Z,7.33
2018-03-12T04:52:29.929Z,8.73
2018-03-12T04:54:58.458Z,7.17
2018-03-12T04:57:26.754Z,7.10
2018-03-12T04:59:55.025Z,6.50
2018-03-12T05:02:23.347Z,5.73
2018-03-12T05:04:51.994Z,6.30
2018-03-12T05:07:20.448Z,6.87
2018-03-12T05:09:48.960Z,6.30
2018-03-12T05:12:17.698Z,6.70
2018-03-12T05:14:46.584Z,6.83
2018-03-12T05:17:14.797Z,6.63
2018-03-12T05:19:43.124Z,6.53
2018-03-12T05:22:12.101Z,6.20
2018-03-12T05:24:40.454Z,6.30
2018-03-12T05:27:09.033Z,7.20
2018-03-12T05:29:37.467Z,5.90
2018-03-12T05:32:06.244Z,6.37
2018-03-12T05:34:35.135Z,7.23
2018-03-12T05:37:03.374Z,6.70
2018-03-12T05:39:31.610Z,7.07
2018-03-12T05:42:00.135Z,6.90
2018-03-12T05:44:28.393Z,6.50
2018-03-12T05:46:56.711Z,6.63
2018-03-12T05:49:25.192Z,7.37
2018-03-12T05:51:53.845Z,7.17
2018-03-12T05:54:23.161Z,6.93
2018-03-12T05:56:51.527Z,6.33
2018-03-12T05:59:19.855Z,8.20
2018-03-12T06:01:48.172Z,7.57
2018-03-12T06:04:16.461Z,6.87
2018-03-12T06:06:44.867Z,6.80
2018-03-12T06:09:16.910Z,7.40
2018-03-12T06:11:45.168Z,7.37
2018-03-12T06:14:13.547Z,7.50
2018-03-12T06:16:42.091Z,6.97
2018-03-12T06:19:10.396Z,7.93
2018-03-12T06:21:38.625Z,7.07
2018-03-12T06:24:07.009Z,7.10
2018-03-12T06:26:35.365Z,7.13
2018-03-12T06:29:04.465Z,6.90
2018-03-12T06:31:32.809Z,7.07
2018-03-12T06:34:02.029Z,7.50
2018-03-12T06:36:30.603Z,7.47
2018-03-12T06:38:59.018Z,8.67
2018-03-12T06:41:27.267Z,7.47
2018-03-12T06:43:55.542Z,8.67
2018-03-12T06:46:24.333Z,7.10
2018-03-12T06:48:52.837Z,7.90
2018-03-12T06:51:21.083Z,8.27
2018-03-12T06:53:49.411Z,9.70
2018-03-12T06:56:17.852Z,10.00
2018-03-12T06:58:46.102Z,9.37
2018-03-12T07:01:14.394Z,10.10
2018-03-12T07:03:42.674Z,9.80
2018-03-12T07:06:10.904Z,9.57
2018-03-12T07:08:39.309Z,9.87
2018-03-12T07:11:07.620Z,14.87
2018-03-12T07:13:36.430Z,9.90
2018-03-12T07:16:05.130Z,9.80
2018-03-12T07:18:33.380Z,9.93
2018-03-12T07:21:01.650Z,10.13
2018-03-12T07:23:29.926Z,10.10
2018-03-12T07:25:58.619Z,10.90
2018-03-12T07:28:26.984Z,10.60
2018-03-12T07:30:55.242Z,11.03
2018-03-12T07:33:23.742Z,9.70
2018-03-12T07:35:52.122Z,10.33
2018-03-12T07:38:20.863Z,11.50
2018-03-12T07:40:49.913Z,10.30
2018-03-12T07:43:18.490Z,10.27
2018-03-12T07:45:47.140Z,10.43
2018-03-12T07:48:16.325Z,10.43
2018-03-12T07:50:45.131Z,10.30
2018-03-12T07:53:13.895Z,10.50
2018-03-12T07:55:42.496Z,9.77
2018-03-12T07:58:11.714Z,8.67
2018-03-12T08:00:40.448Z,8.90
2018-03-12T08:03:08.914Z,9.30
2018-03-12T08:05:37.189Z,9.50
2018-03-12T08:08:05.503Z,10.77
2018-03-12T08:10:33.795Z,8.53
2018-03-12T08:13:02.570Z,10.20
2018-03-12T08:15:32.173Z,10.87
2018-03-12T08:18:00.921Z,9.53
2018-03-12T08:20:29.198Z,11.00
2018-03-12T08:22:57.605Z,10.50
2018-03-12T08:25:25.877Z,10.00
2018-03-12T08:27:54.334Z,9.37
2018-03-12T08:30:22.666Z,9.47
2018-03-12T08:32:51.757Z,9.63
2018-03-12T08:35:20.855Z,11.70
2018-03-12T08:37:50.297Z,10.73
2018-03-12T08:40:19.131Z,9.43
2018-03-12T08:42:47.964Z,9.30
2018-03-12T08:45:17.523Z,8.80
2018-03-12T08:47:45.803Z,8.80
2018-03-12T08:50:14.602Z,8.30
2018-03-12T08:52:43.649Z,8.30
2018-03-12T08:55:11.983Z,11.00
2018-03-12T08:57:40.430Z,9.70
2018-03-12T09:00:09.642Z,9.13
2018-03-12T09:02:37.929Z,10.63
2018-03-12T09:05:06.928Z,9.10
2018-03-12T09:07:36.134Z,9.20
2018-03-12T09:10:05.211Z,8.37
2018-03-12T09:12:33.511Z,9.90
2018-03-12T09:15:02.689Z,9.10
2018-03-12T09:17:31.164Z,9.00
2018-03-12T09:20:00.424Z,9.33
2018-03-12T09:22:28.959Z,9.27
2018-03-12T09:24:58.102Z,9.13
2018-03-12T09:27:26.807Z,9.03
2018-03-12T09:29:55.111Z,9.40
2018-03-12T09:32:23.384Z,8.90
2018-03-12T09:34:51.766Z,9.10
2018-03-12T09:37:20.214Z,8.47
2018-03-12T09:39:48.490Z,8.40
2018-03-12T09:42:17.306Z,8.50
2018-03-12T09:44:45.694Z,8.20
2018-03-12T09:47:13.989Z,7.70
2018-03-12T09:49:42.395Z,8.53
2018-03-12T09:52:10.847Z,8.30
2018-03-12T09:54:40.130Z,7.30
2018-03-12T09:57:08.373Z,7.67
2018-03-12T09:59:36.811Z,7.40
2018-03-12T10:02:05.115Z,8.13
2018-03-12T10:04:33.405Z,7.70
2018-03-12T10:07:01.877Z,6.67
2018-03-12T10:09:30.153Z,7.77
2018-03-12T10:11:58.405Z,7.10
2018-03-12T10:14:27.132Z,7.63
2018-03-12T10:16:55.358Z,8.03
2018-03-12T10:19:24.499Z,6.63
2018-03-12T10:21:52.838Z,7.80
2018-03-12T10:24:21.498Z,7.03
2018-03-12T10:26:49.864Z,6.60
2018-03-12T10:29:18.308Z,6.73
2018-03-12T10:31:46.989Z,7.23
2018-03-12T10:34:15.278Z,5.83
2018-03-12T10:36:44.404Z,6.50
2018-03-12T10:39:12.668Z,5.90
2018-03-12T10:41:40.916Z,5.90
2018-03-12T10:44:09.526Z,6.07
2018-03-12T10:46:37.780Z,5.37
2018-03-12T10:49:06.160Z,5.70
2018-03-12T10:51:34.494Z,5.20
2018-03-12T10:54:02.927Z,5.70
2018-03-12T10:56:31.263Z,4.90
2018-03-12T10:58:59.780Z,5.40
2018-03-12T11:01:28.878Z,4.87
2018-03-12T11:03:57.394Z,4.47
2018-03-12T11:06:29.750Z,5.27
2018-03-12T11:08:58.029Z,6.23
2018-03-12T11:11:26.653Z,3.73
2018-03-12T11:13:54.965Z,4.77
2018-03-12T11:16:23.238Z,4.03
2018-03-12T11:18:52.323Z,4.40
2018-03-12T11:21:20.698Z,5.17
2018-03-12T11:23:49.043Z,4.93
2018-03-12T11:26:17.424Z,4.83
2018-03-12T11:28:45.770Z,5.40
2018-03-12T11:31:14.170Z,5.50
2018-03-12T11:33:42.473Z,5.70
2018-03-12T11:36:10.763Z,5.83
2018-03-12T11:38:39.886Z,5.50
2018-03-12T11:41:08.162Z,5.40
2018-03-12T11:43:36.443Z,6.20
2018-03-12T11:46:05.053Z,5.00
2018-03-12T11:48:33.340Z,5.10
2018-03-12T11:51:02.917Z,4.83
2018-03-12T11:53:31.339Z,5.20
2018-03-12T11:55:59.615Z,4.87
2018-03-12T11:58:27.916Z,4.63
2018-03-12T12:00:56.205Z,4.40
2018-03-12T12:03:24.863Z,4.90
2018-03-12T12:05:53.359Z,4.40
2018-03-12T12:08:21.965Z,4.37
2018-03-12T12:10:50.335Z,4.40
2018-03-12T12:13:18.829Z,5.20
2018-03-12T12:15:47.104Z,5.30
2018-03-12T12:18:15.745Z,5.00
2018-03-12T12:20:44.461Z,5.40
2018-03-12T12:23:12.668Z,5.03
2018-03-12T12:25:41.539Z,5.23
2018-03-12T12:28:10.643Z,6.33
2018-03-12T12:30:39.577Z,6.00
2018-03-12T12:33:08.040Z,5.90
2018-03-12T12:35:36.405Z,5.90
2018-03-12T12:38:04.774Z,5.90
2018-03-12T12:40:33.065Z,6.87
2018-03-12T12:43:01.417Z,5.80
2018-03-12T12:45:29.708Z,5.67
2018-03-12T12:47:58.329Z,5.63
2018-03-12T12:50:26.910Z,5.90
2018-03-12T12:52:55.154Z,4.67
2018-03-12T12:55:23.468Z,4.70
2018-03-12T12:57:52.158Z,5.00
2018-03-12T13:00:20.401Z,5.53
2018-03-12T13:02:48.712Z,6.10
2018-03-12T13:05:16.982Z,5.50
2018-03-12T13:07:46.150Z,6.23
2018-03-12T13:10:14.498Z,5.40
2018-03-12T13:12:43.569Z,6.27
2018-03-12T13:15:11.801Z,6.73
2018-03-12T13:17:40.179Z,6.67
2018-03-12T13:20:08.940Z,6.03
2018-03-12T13:22:37.868Z,6.37
2018-03-12T13:25:06.956Z,5.20
2018-03-12T13:27:35.238Z,5.37
2018-03-12T13:30:04.172Z,5.83
2018-03-12T13:32:32.592Z,5.67
2018-03-12T13:35:01.326Z,6.50
2018-03-12T13:37:29.554Z,6.10
2018-03-12T13:39:58.349Z,5.77
2018-03-12T13:42:26.739Z,5.57
2018-03-12T13:44:55.506Z,5.87
2018-03-12T13:47:23.820Z,6.67
2018-03-12T13:49:52.235Z,4.00
2018-03-12T13:52:21.409Z,4.50
2018-03-12T13:54:49.900Z,3.40
2018-03-12T13:57:19.435Z,2.87
2018-03-12T13:59:47.799Z,3.60
2018-03-12T14:02:16.699Z,3.57
2018-03-12T14:04:46.792Z,3.27
2018-03-12T14:07:15.087Z,4.23
2018-03-12T14:09:44.140Z,4.10
2018-03-12T14:12:12.909Z,2.97
2018-03-12T14:14:41.215Z,2.70
2018-03-12T14:17:09.522Z,6.20
2018-03-12T14:19:37.990Z,3.23
2018-03-12T14:22:07.018Z,2.93
2018-03-12T14:24:36.168Z,2.10
2018-03-12T14:27:05.146Z,2.63
2018-03-12T14:29:33.870Z,1.93
2018-03-12T14:32:02.212Z,2.07
2018-03-12T14:34:30.964Z,1.97
2018-03-12T14:36:59.290Z,2.20
2018-03-12T14:39:27.581Z,4.40
2018-03-12T14:41:56.096Z,2.07
2018-03-12T14:44:25.195Z,1.90
2018-03-12T14:46:53.751Z,2.17
2018-03-12T14:49:23.178Z,1.80
2018-03-12T14:51:51.687Z,4.17
2018-03-12T14:54:20.366Z,2.80
2018-03-12T14:56:48.845Z,2.50
2018-03-12T14:59:17.476Z,2.00
2018-03-12T15:01:46.010Z,2.40
2018-03-12T15:04:14.413Z,2.83
2018-03-12T15:06:42.710Z,1.90
2018-03-12T15:09:11.264Z,1.73
2018-03-12T15:11:39.528Z,2.20
2018-03-12T15:14:07.812Z,2.10
2018-03-12T15:16:36.060Z,2.67
2018-03-12T15:19:04.687Z,2.63
2018-03-12T15:21:32.968Z,2.40
2018-03-12T15:24:01.503Z,2.03
2018-03-12T15:26:30.380Z,2.10
2018-03-12T15:28:58.958Z,1.30
2018-03-12T15:31:27.775Z,1.40
2018-03-12T15:33:57.618Z,1.33
2018-03-12T15:36:25.895Z,1.70
2018-03-12T15:38:54.616Z,2.03
2018-03-12T15:41:23.374Z,1.83
2018-03-12T15:43:51.714Z,1.67
2018-03-12T15:46:20.032Z,1.50
2018-03-12T15:48:48.566Z,1.50
2018-03-12T15:51:17.347Z,1.80
2018-03-12T15:53:45.797Z,1.90
2018-03-12T15:56:14.600Z,2.80
2018-03-12T15:58:42.948Z,1.67
2018-03-12T16:01:11.246Z,2.33
2018-03-12T16:03:39.572Z,2.10
2018-03-12T16:06:08.664Z,1.50
2018-03-12T16:08:37.934Z,1.63
2018-03-12T16:11:06.270Z,1.43
2018-03-12T16:13:34.693Z,1.57
2018-03-12T16:16:02.958Z,2.03
2018-03-12T16:18:31.266Z,1.70
2018-03-12T16:21:00.426Z,1.83
2018-03-12T16:23:28.681Z,1.60
2018-03-12T16:25:57.576Z,1.60
2018-03-12T16:28:26.798Z,1.60
2018-03-12T16:30:55.415Z,1.80
2018-03-12T16:33:24.948Z,1.37
2018-03-12T16:35:53.576Z,2.00
2018-03-12T16:38:22.092Z,2.00
2018-03-12T16:40:51.184Z,1.70
2018-03-12T16:43:20.836Z,2.20
2018-03-12T16:45:49.317Z,2.50
2018-03-12T16:48:17.862Z,2.50
2018-03-12T16:50:46.376Z,2.80
2018-03-12T16:53:15.069Z,5.37
2018-03-12T16:55:43.754Z,3.37
2018-03-12T16:58:12.743Z,3.30
2018-03-12T17:00:41.027Z,2.70
2018-03-12T17:03:09.430Z,3.13
2018-03-12T17:05:37.803Z,2.47
2018-03-12T17:08:06.151Z,2.80
2018-03-12T17:10:34.627Z,2.40
2018-03-12T17:13:02.974Z,2.80
2018-03-12T17:15:31.402Z,3.20
2018-03-12T17:17:59.905Z,2.80
2018-03-12T17:20:28.348Z,2.33
2018-03-12T17:22:57.145Z,2.03
2018-03-12T17:25:26.538Z,1.90
2018-03-12T17:27:54.837Z,2.60
2018-03-12T17:30:23.299Z,2.30
2018-03-12T17:32:51.725Z,2.20
2018-03-12T17:35:20.481Z,2.80
2018-03-12T17:37:49.116Z,5.37
2018-03-12T17:40:17.613Z,6.77
2018-03-12T17:42:45.912Z,4.80
2018-03-12T17:45:14.653Z,3.30
2018-03-12T17:47:43.785Z,2.10
2018-03-12T17:50:38.456Z,2.60
2018-03-12T17:53:07.526Z,1.80
2018-03-12T17:55:37.151Z,1.60
2018-03-12T17:58:05.900Z,2.07
2018-03-12T18:00:34.173Z,2.40
2018-03-12T18:03:02.612Z,2.17
2018-03-12T18:05:30.998Z,2.13
2018-03-12T18:08:00.024Z,2.17
2018-03-12T18:10:28.270Z,1.90
2018-03-12T18:12:56.523Z,2.00
2018-03-12T18:15:25.572Z,2.03
2018-03-12T18:17:53.853Z,1.90
2018-03-12T18:20:22.103Z,2.00
2018-03-12T18:22:50.433Z,1.77
2018-03-12T18:25:18.753Z,2.20
2018-03-12T18:27:47.961Z,2.23
2018-03-12T18:30:16.321Z,2.53
2018-03-12T18:32:45.468Z,2.47
2018-03-12T18:35:13.670Z,2.00
2018-03-12T18:37:42.279Z,1.90
2018-03-12T18:40:10.634Z,1.80
2018-03-12T18:42:39.199Z,2.10
2018-03-12T18:45:07.590Z,2.40
2018-03-12T18:47:35.923Z,1.80
2018-03-12T18:50:04.207Z,2.80
2018-03-12T18:52:32.752Z,1.83
2018-03-12T18:55:02.189Z,1.70
2018-03-12T18:57:30.422Z,1.93
2018-03-12T18:59:58.945Z,1.73
2018-03-12T19:02:27.188Z,1.80
2018-03-12T19:04:55.469Z,2.17
2018-03-12T19:07:23.876Z,2.00
2018-03-12T19:09:52.188Z,1.57
2018-03-12T19:12:20.802Z,1.97
2018-03-12T19:14:49.896Z,2.30
2018-03-12T19:17:18.517Z,3.47
2018-03-12T19:19:46.782Z,2.27
2018-03-12T19:22:15.223Z,2.10
2018-03-12T19:24:43.445Z,2.50
2018-03-12T19:27:12.080Z,3.00
2018-03-12T19:29:40.357Z,2.30
2018-03-12T19:32:08.563Z,2.10
2018-03-12T19:34:36.873Z,2.60
2018-03-12T19:37:05.155Z,2.73
2018-03-12T19:39:33.542Z,3.03
2018-03-12T19:42:01.807Z,2.90
2018-03-12T19:44:30.864Z,3.03
2018-03-12T19:46:59.161Z,2.53
2018-03-12T19:49:27.488Z,2.50
2018-03-12T19:51:55.983Z,3.13
2018-03-12T19:54:24.359Z,2.50
2018-03-12T19:56:52.782Z,2.43
2018-03-12T19:59:21.281Z,2.33
2018-03-12T20:01:50.166Z,2.50
2018-03-12T20:04:18.780Z,2.40
2018-03-12T20:06:50.402Z,2.30
2018-03-12T20:09:34.160Z,2.80
2018-03-12T20:12:02.612Z,2.10
2018-03-12T20:14:32.908Z,2.93
2018-03-12T20:17:02.166Z,2.70
2018-03-12T20:19:30.423Z,2.43
2018-03-12T20:21:58.800Z,2.73
2018-03-12T20:24:27.088Z,2.40
2018-03-12T20:26:55.320Z,2.67
2018-03-12T20:29:24.312Z,2.63
2018-03-12T20:31:53.380Z,2.47
2018-03-12T20:34:21.712Z,2.90
2018-03-12T20:36:50.066Z,2.97
2018-03-12T20:39:19.339Z,3.10
2018-03-12T20:41:47.599Z,2.90
2018-03-12T20:44:16.051Z,2.50
2018-03-12T20:46:45.052Z,2.77
2018-03-12T20:49:13.400Z,2.87
2018-03-12T20:51:42.480Z,3.10
2018-03-12T20:54:10.793Z,3.37
2018-03-12T20:56:39.136Z,2.93
2018-03-12T20:59:07.422Z,2.83
2018-03-12T21:01:35.697Z,3.60
2018-03-12T21:04:05.120Z,3.17
2018-03-12T21:06:33.536Z,2.87
2018-03-12T21:09:02.288Z,2.60
2018-03-12T21:11:30.569Z,2.20
2018-03-12T21:13:58.854Z,2.30
2018-03-12T21:16:27.454Z,2.10
2018-03-12T21:18:56.077Z,2.53
2018-03-12T21:21:24.584Z,2.30
2018-03-12T21:23:53.184Z,2.30
2018-03-12T21:26:22.435Z,2.57
2018-03-12T21:28:50.810Z,3.40
2018-03-12T21:31:19.255Z,3.10
2018-03-12T21:33:47.723Z,2.93
2018-03-12T21:36:17.288Z,3.10
2018-03-12T21:38:45.741Z,2.97
2018-03-12T21:41:14.256Z,3.60
2018-03-12T21:43:42.881Z,3.20
2018-03-12T21:46:11.470Z,3.40
2018-03-12T21:48:39.770Z,4.20
2018-03-12T21:51:08.808Z,3.23
2018-03-12T21:53:37.067Z,4.03
2018-03-12T21:56:05.551Z,3.47
2018-03-12T21:58:34.129Z,4.53
2018-03-12T22:01:02.544Z,3.93
2018-03-12T22:03:31.611Z,4.10
2018-03-12T22:06:00.225Z,4.60
2018-03-12T22:08:28.626Z,4.03
2018-03-12T22:10:57.056Z,3.90
2018-03-12T22:13:25.548Z,4.30
2018-03-12T22:15:54.465Z,4.17
2018-03-12T22:18:23.592Z,4.13
2018-03-12T22:20:52.069Z,4.93
2018-03-12T22:23:20.529Z,5.13
2018-03-12T22:25:49.639Z,4.70
2018-03-12T22:28:18.108Z,5.30
2018-03-12T22:30:46.588Z,5.30
2018-03-12T22:33:14.812Z,5.17
2018-03-12T22:35:43.140Z,4.73
2018-03-12T22:38:11.719Z,4.50
2018-03-12T22:40:40.260Z,5.40
2018-03-12T22:43:08.540Z,5.57
2018-03-12T22:45:37.708Z,5.47
2018-03-12T22:48:06.045Z,5.80
2018-03-12T22:50:35.332Z,6.70
2018-03-12T22:53:04.938Z,6.47
2018-03-12T22:55:33.398Z,6.63
2018-03-12T22:58:01.826Z,6.73
2018-03-12T23:00:30.098Z,6.20
2018-03-12T23:02:58.644Z,7.10
2018-03-12T23:05:27.449Z,6.83
2018-03-12T23:07:55.702Z,7.57
2018-03-12T23:10:24.947Z,6.97
2018-03-12T23:12:54.076Z,6.73
2018-03-12T23:15:22.344Z,6.50
2018-03-12T23:17:50.578Z,7.63
2018-03-12T23:20:18.953Z,6.73
2018-03-12T23:22:47.999Z,7.07
2018-03-12T23:25:16.264Z,7.63
2018-03-12T23:27:44.997Z,6.90
2018-03-12T23:30:13.284Z,6.97
2018-03-12T23:32:42.334Z,6.87
2018-03-12T23:35:10.612Z,6.57
2018-03-12T23:37:39.191Z,6.20
2018-03-12T23:40:07.650Z,6.83
2018-03-12T23:42:36.668Z,7.20
2018-03-12T23:45:04.976Z,6.33
2018-03-12T23:47:33.264Z,6.97
2018-03-12T23:50:02.515Z,7.13
2018-03-12T23:52:30.788Z,6.33
2018-03-12T23:54:59.186Z,6.90
2018-03-12T23:57:27.551Z,7.70
2018-03-12T23:59:55.863Z,7.80
